Time;durP1;ratioP1;P1;durP2;ratioP2;P2;SDS_P1;SDS_P2;PMS_P1;PMS_P2;Temp;Humidity;BMP_temperature;BMP_pressure;BME280_temperature;BME280_humidity;BME280_pressure;Samples;Min_cycle;Max_cycle;Signal;HPM_P1;HPM_P2
2024/03/20 00:02:22;;;;;;;7.82;5.68;;;;;;;;;;5006485;28;20048;-76
2024/03/20 00:04:47;;;;;;;9.52;5.60;;;;;;;;;;5016615;28;20029;-76
2024/03/20 00:07:13;;;;;;;9.55;5.60;;;;;;;;;;5009668;28;20037;-76
2024/03/20 00:09:39;;;;;;;8.93;5.30;;;;;;;;;;5000060;28;20395;-76
2024/03/20 00:12:06;;;;;;;7.60;5.35;;;;;;;;;;5016166;28;20033;-76
2024/03/20 00:14:31;;;;;;;9.15;4.90;;;;;;;;;;5015892;28;20063;-76
2024/03/20 00:16:57;;;;;;;7.00;4.72;;;;;;;;;;5007982;28;20149;-75
2024/03/20 00:19:23;;;;;;;6.93;4.20;;;;;;;;;;5012811;28;20049;-76
2024/03/20 00:21:48;;;;;;;6.30;4.50;;;;;;;;;;5009913;28;20060;-76
2024/03/20 00:24:13;;;;;;;7.78;4.03;;;;;;;;;;5018701;28;20116;-76
2024/03/20 00:26:39;;;;;;;8.43;4.60;;;;;;;;;;5007182;28;20108;-78
2024/03/20 00:29:05;;;;;;;7.32;4.53;;;;;;;;;;5019404;28;20091;-76
2024/03/20 00:31:30;;;;;;;7.35;4.38;;;;;;;;;;5016723;28;20030;-76
2024/03/20 00:33:56;;;;;;;7.70;4.53;;;;;;;;;;5013921;28;20036;-77
2024/03/20 00:36:21;;;;;;;7.53;4.55;;;;;;;;;;5014170;28;20510;-76
2024/03/20 00:38:47;;;;;;;7.47;4.93;;;;;;;;;;4998725;28;20022;-76
2024/03/20 00:41:13;;;;;;;6.20;4.70;;;;;;;;;;5020534;28;20550;-76
2024/03/20 00:43:38;;;;;;;7.78;5.10;;;;;;;;;;5024710;28;20467;-75
2024/03/20 00:46:04;;;;;;;7.55;4.88;;;;;;;;;;5016606;28;20080;-76
2024/03/20 00:48:30;;;;;;;9.60;4.97;;;;;;;;;;5006337;28;20033;-76
2024/03/20 00:50:55;;;;;;;7.85;5.35;;;;;;;;;;5013410;28;20053;-78
2024/03/20 00:53:21;;;;;;;7.45;5.20;;;;;;;;;;5017379;28;20028;-78
2024/03/20 00:55:46;;;;;;;8.95;5.32;;;;;;;;;;4999932;28;20025;-79
2024/03/20 00:58:12;;;;;;;8.57;5.50;;;;;;;;;;5015762;28;20022;-77
2024/03/20 01:00:38;;;;;;;10.27;5.90;;;;;;;;;;5014414;28;20479;-79
2024/03/20 01:03:04;;;;;;;7.25;5.90;;;;;;;;;;4998767;28;20041;-79
2024/03/20 01:05:30;;;;;;;8.88;6.00;;;;;;;;;;4998648;28;20025;-79
2024/03/20 01:07:55;;;;;;;9.85;5.65;;;;;;;;;;5016486;28;20037;-77
2024/03/20 01:10:21;;;;;;;11.35;6.15;;;;;;;;;;5014743;28;20480;-77
2024/03/20 01:12:46;;;;;;;8.90;6.22;;;;;;;;;;5019980;28;20497;-78
2024/03/20 01:15:12;;;;;;;9.90;6.38;;;;;;;;;;4999613;28;20472;-77
2024/03/20 01:17:37;;;;;;;9.20;5.90;;;;;;;;;;5014444;28;20033;-77
2024/03/20 01:20:03;;;;;;;12.70;6.70;;;;;;;;;;5014252;28;20044;-77
2024/03/20 01:22:38;;;;;;;9.07;6.72;;;;;;;;;;5019214;28;20072;-76
2024/03/20 01:25:05;;;;;;;9.45;6.45;;;;;;;;;;5017067;28;20025;-77
2024/03/20 01:27:30;;;;;;;10.05;6.15;;;;;;;;;;5007804;28;20030;-77
2024/03/20 01:29:56;;;;;;;10.75;7.00;;;;;;;;;;5014054;28;20030;-79
2024/03/20 01:32:21;;;;;;;11.23;6.88;;;;;;;;;;4997371;28;20037;-76
2024/03/20 01:34:47;;;;;;;11.38;6.47;;;;;;;;;;5020113;28;20037;-77
2024/03/20 01:37:13;;;;;;;12.38;6.53;;;;;;;;;;4999064;28;20029;-77
2024/03/20 01:39:38;;;;;;;12.20;6.43;;;;;;;;;;5016042;28;20483;-77
2024/03/20 01:42:04;;;;;;;9.10;6.07;;;;;;;;;;5006257;28;20395;-77
2024/03/20 01:44:30;;;;;;;9.70;6.50;;;;;;;;;;5003537;28;20056;-77
2024/03/20 01:46:55;;;;;;;9.52;6.03;;;;;;;;;;5016654;28;20056;-76
2024/03/20 01:49:21;;;;;;;7.88;6.45;;;;;;;;;;5013502;28;20549;-77
2024/03/20 01:51:47;;;;;;;8.77;5.93;;;;;;;;;;5013348;28;20037;-77
2024/03/20 01:54:14;;;;;;;12.30;6.15;;;;;;;;;;5014876;28;20022;-77
2024/03/20 01:56:42;;;;;;;8.07;6.00;;;;;;;;;;5014536;28;20091;-79
2024/03/20 01:59:09;;;;;;;9.90;6.25;;;;;;;;;;5013768;28;20057;-76
2024/03/20 02:04:05;;;;;;;7.57;5.82;;;;;;;;;;5043750;28;20072;-78
2024/03/20 02:06:31;;;;;;;8.20;6.32;;;;;;;;;;5035039;28;20033;-78
2024/03/20 02:08:58;;;;;;;8.95;6.47;;;;;;;;;;5044509;28;20032;-78
2024/03/20 02:11:25;;;;;;;10.05;6.60;;;;;;;;;;5044511;28;20035;-79
2024/03/20 02:13:53;;;;;;;12.93;6.63;;;;;;;;;;5044671;28;20076;-78
2024/03/20 02:16:19;;;;;;;12.85;6.90;;;;;;;;;;5043004;28;20041;-78
2024/03/20 02:18:46;;;;;;;8.48;6.32;;;;;;;;;;5027404;28;20385;-79
2024/03/20 02:21:13;;;;;;;9.65;6.95;;;;;;;;;;5045044;28;20021;-78
2024/03/20 02:23:39;;;;;;;10.48;7.13;;;;;;;;;;5035111;28;20032;-78
2024/03/20 02:26:06;;;;;;;10.85;7.18;;;;;;;;;;5026746;28;20033;-78
2024/03/20 02:28:33;;;;;;;10.27;7.22;;;;;;;;;;5041714;28;20040;-78
2024/03/20 02:30:59;;;;;;;11.93;7.05;;;;;;;;;;5028575;28;20382;-78
2024/03/20 02:33:25;;;;;;;10.48;7.22;;;;;;;;;;5042281;28;20037;-78
2024/03/20 02:35:54;;;;;;;9.48;7.45;;;;;;;;;;5043916;28;20036;-79
2024/03/20 02:38:21;;;;;;;9.63;6.97;;;;;;;;;;5051717;28;20207;-78
2024/03/20 02:40:46;;;;;;;11.45;7.55;;;;;;;;;;5049533;28;20032;-78
2024/03/20 02:43:12;;;;;;;10.60;7.53;;;;;;;;;;5051092;28;20509;-79
2024/03/20 02:45:37;;;;;;;10.73;7.13;;;;;;;;;;5032635;28;20098;-78
2024/03/20 02:48:04;;;;;;;10.43;6.93;;;;;;;;;;5049826;28;20078;-78
2024/03/20 02:50:30;;;;;;;12.32;7.28;;;;;;;;;;5049171;28;20035;-79
2024/03/20 02:52:57;;;;;;;10.25;7.53;;;;;;;;;;5051305;28;20037;-78
2024/03/20 02:55:23;;;;;;;9.32;7.10;;;;;;;;;;5050253;28;20036;-79
2024/03/20 02:57:48;;;;;;;9.50;7.43;;;;;;;;;;5049546;28;20382;-78
2024/03/20 03:00:14;;;;;;;11.55;7.28;;;;;;;;;;5051277;28;20102;-78
2024/03/20 03:02:39;;;;;;;10.75;7.97;;;;;;;;;;5050996;28;20158;-78
2024/03/20 03:05:05;;;;;;;13.43;7.18;;;;;;;;;;5051030;28;20103;-78
2024/03/20 03:07:31;;;;;;;12.55;8.10;;;;;;;;;;5050299;28;20021;-78
2024/03/20 03:09:56;;;;;;;10.25;7.90;;;;;;;;;;5050878;28;20044;-78
2024/03/20 03:12:21;;;;;;;9.68;7.25;;;;;;;;;;5050667;28;20029;-81
2024/03/20 03:14:47;;;;;;;11.52;7.28;;;;;;;;;;5051026;28;20025;-81
2024/03/20 03:17:12;;;;;;;11.43;7.25;;;;;;;;;;5049059;28;20032;-81
2024/03/20 03:19:38;;;;;;;10.40;7.03;;;;;;;;;;5050458;28;20047;-80
2024/03/20 03:22:03;;;;;;;9.07;7.30;;;;;;;;;;5051324;28;20029;-81
2024/03/20 03:24:29;;;;;;;10.30;7.38;;;;;;;;;;5050764;28;20478;-80
2024/03/20 03:26:54;;;;;;;12.25;7.35;;;;;;;;;;5048161;28;20024;-81
2024/03/20 03:29:20;;;;;;;10.88;7.90;;;;;;;;;;5050866;28;20028;-81
2024/03/20 03:31:45;;;;;;;10.20;8.15;;;;;;;;;;5048476;28;20028;-80
2024/03/20 03:34:11;;;;;;;13.15;7.80;;;;;;;;;;5050804;28;20032;-81
2024/03/20 03:36:36;;;;;;;12.88;8.57;;;;;;;;;;5034993;28;20068;-81
2024/03/20 03:39:01;;;;;;;13.23;8.10;;;;;;;;;;5049185;28;20505;-80
2024/03/20 03:41:27;;;;;;;12.50;7.80;;;;;;;;;;5036080;28;20029;-81
2024/03/20 03:43:52;;;;;;;11.63;8.02;;;;;;;;;;5052556;28;20029;-80
2024/03/20 03:46:18;;;;;;;10.90;7.97;;;;;;;;;;5035038;28;20024;-81
2024/03/20 03:48:43;;;;;;;11.55;7.65;;;;;;;;;;5045135;28;20029;-81
2024/03/20 03:51:09;;;;;;;12.40;8.13;;;;;;;;;;5047496;28;20036;-81
2024/03/20 03:53:34;;;;;;;9.50;7.60;;;;;;;;;;5029573;28;20020;-81
2024/03/20 03:56:00;;;;;;;14.07;8.25;;;;;;;;;;5046891;28;20074;-81
2024/03/20 03:58:26;;;;;;;10.90;8.00;;;;;;;;;;5046296;28;20221;-81
2024/03/20 04:00:51;;;;;;;10.18;7.85;;;;;;;;;;5029573;28;20100;-80
2024/03/20 04:03:16;;;;;;;11.20;7.65;;;;;;;;;;5044557;28;20119;-80
2024/03/20 04:05:44;;;;;;;10.68;8.27;;;;;;;;;;5047134;28;20372;-81
2024/03/20 04:08:09;;;;;;;12.82;8.02;;;;;;;;;;5046181;28;20485;-81
2024/03/20 04:10:36;;;;;;;12.80;8.45;;;;;;;;;;5028430;28;20187;-80
2024/03/20 04:13:02;;;;;;;11.95;8.20;;;;;;;;;;5045785;28;20038;-80
2024/03/20 04:15:27;;;;;;;13.82;7.55;;;;;;;;;;5028260;28;20037;-80
2024/03/20 04:17:53;;;;;;;11.02;8.40;;;;;;;;;;5047543;28;20017;-81
2024/03/20 04:20:19;;;;;;;10.65;7.85;;;;;;;;;;5047015;28;20052;-81
2024/03/20 04:22:46;;;;;;;10.75;8.48;;;;;;;;;;5048027;28;20425;-79
2024/03/20 04:25:11;;;;;;;11.82;8.43;;;;;;;;;;5045352;28;20434;-78
2024/03/20 04:27:37;;;;;;;11.65;8.20;;;;;;;;;;5044997;28;20032;-78
2024/03/20 04:30:12;;;;;;;12.60;8.48;;;;;;;;;;5046505;28;20025;-78
2024/03/20 04:32:37;;;;;;;12.43;8.32;;;;;;;;;;5044429;28;20505;-81
2024/03/20 04:35:03;;;;;;;13.10;8.80;;;;;;;;;;5044706;28;20029;-81
2024/03/20 04:37:28;;;;;;;10.82;8.20;;;;;;;;;;5046499;28;20567;-81
2024/03/20 04:39:54;;;;;;;12.18;8.75;;;;;;;;;;5045696;28;20029;-81
2024/03/20 04:42:19;;;;;;;13.20;8.93;;;;;;;;;;5029660;28;20058;-80
2024/03/20 04:44:45;;;;;;;11.05;9.25;;;;;;;;;;5044796;28;20033;-81
2024/03/20 04:47:11;;;;;;;13.25;9.50;;;;;;;;;;5048805;28;20028;-81
2024/03/20 04:49:36;;;;;;;12.30;9.55;;;;;;;;;;5045273;28;20462;-81
2024/03/20 04:52:02;;;;;;;13.32;8.73;;;;;;;;;;5046413;28;20024;-81
2024/03/20 04:54:28;;;;;;;12.23;9.20;;;;;;;;;;5046868;28;20094;-80
2024/03/20 04:56:53;;;;;;;14.50;9.32;;;;;;;;;;5046297;28;20493;-81
2024/03/20 04:59:18;;;;;;;13.02;9.07;;;;;;;;;;5028064;28;20025;-81
2024/03/20 05:01:44;;;;;;;12.52;9.00;;;;;;;;;;5046083;28;20366;-80
2024/03/20 05:04:10;;;;;;;13.98;9.30;;;;;;;;;;5046575;28;20029;-81
2024/03/20 05:06:35;;;;;;;13.82;9.43;;;;;;;;;;5049409;28;20108;-81
2024/03/20 05:09:01;;;;;;;14.55;8.75;;;;;;;;;;5029426;28;20162;-81
2024/03/20 05:11:26;;;;;;;11.57;8.75;;;;;;;;;;5046696;28;20411;-81
2024/03/20 05:13:52;;;;;;;14.30;9.27;;;;;;;;;;5044850;28;20064;-81
2024/03/20 05:16:17;;;;;;;14.02;10.15;;;;;;;;;;5027995;28;20124;-81
2024/03/20 05:18:43;;;;;;;11.43;9.13;;;;;;;;;;5047276;28;20033;-81
2024/03/20 05:21:08;;;;;;;11.63;9.20;;;;;;;;;;5046562;28;20028;-81
2024/03/20 05:23:34;;;;;;;13.52;9.32;;;;;;;;;;5028428;28;20056;-81
2024/03/20 05:26:00;;;;;;;13.95;9.48;;;;;;;;;;5044802;28;20039;-81
2024/03/20 05:28:26;;;;;;;13.57;9.68;;;;;;;;;;5047267;28;20049;-81
2024/03/20 05:30:52;;;;;;;13.57;9.65;;;;;;;;;;5047137;28;20028;-81
2024/03/20 05:33:18;;;;;;;13.57;9.85;;;;;;;;;;5045707;28;20083;-81
2024/03/20 05:35:43;;;;;;;12.85;9.80;;;;;;;;;;5045990;28;20029;-81
2024/03/20 05:38:09;;;;;;;13.88;9.30;;;;;;;;;;5028003;28;20025;-81
2024/03/20 05:40:35;;;;;;;14.23;9.18;;;;;;;;;;5046510;28;20032;-81
2024/03/20 05:43:00;;;;;;;12.82;8.70;;;;;;;;;;5027650;28;20098;-81
2024/03/20 05:45:25;;;;;;;12.90;9.25;;;;;;;;;;5026519;28;20538;-81
2024/03/20 05:47:51;;;;;;;12.55;9.25;;;;;;;;;;5044620;28;20036;-81
2024/03/20 05:50:16;;;;;;;12.55;8.93;;;;;;;;;;5045124;28;20029;-81
2024/03/20 05:52:41;;;;;;;13.15;9.02;;;;;;;;;;5044703;28;20465;-81
2024/03/20 05:55:08;;;;;;;12.02;9.02;;;;;;;;;;5045824;28;20070;-80
2024/03/20 05:57:33;;;;;;;11.75;8.85;;;;;;;;;;5045142;28;20033;-81
2024/03/20 05:59:59;;;;;;;13.90;9.13;;;;;;;;;;5044687;28;20073;-81
2024/03/20 06:02:24;;;;;;;11.50;9.38;;;;;;;;;;5042932;28;20108;-81
2024/03/20 06:04:50;;;;;;;11.43;9.20;;;;;;;;;;5046148;28;20395;-81
2024/03/20 06:07:15;;;;;;;12.32;8.77;;;;;;;;;;5027112;28;20037;-81
2024/03/20 06:09:41;;;;;;;12.38;9.00;;;;;;;;;;5044419;28;20434;-81
2024/03/20 06:12:09;;;;;;;12.52;8.82;;;;;;;;;;5044687;28;20021;-81
2024/03/20 06:14:35;;;;;;;16.00;9.70;;;;;;;;;;5045453;28;20073;-81
2024/03/20 06:17:01;;;;;;;12.43;9.15;;;;;;;;;;5026920;28;20416;-81
2024/03/20 06:19:26;;;;;;;13.13;9.10;;;;;;;;;;5044961;28;20033;-81
2024/03/20 06:21:52;;;;;;;13.63;9.48;;;;;;;;;;5048100;28;20333;-81
2024/03/20 06:24:17;;;;;;;12.07;9.15;;;;;;;;;;5026769;28;20029;-81
2024/03/20 06:26:43;;;;;;;12.00;8.57;;;;;;;;;;5042527;28;20036;-81
2024/03/20 06:29:08;;;;;;;12.00;8.82;;;;;;;;;;5046630;28;20032;-81
2024/03/20 06:31:35;;;;;;;11.65;9.30;;;;;;;;;;5042281;28;20491;-81
2024/03/20 06:34:01;;;;;;;12.35;9.07;;;;;;;;;;5044402;28;20056;-81
2024/03/20 06:36:27;;;;;;;11.48;8.95;;;;;;;;;;5045333;28;20344;-81
2024/03/20 06:38:52;;;;;;;14.02;9.60;;;;;;;;;;5047195;28;20033;-81
2024/03/20 06:41:18;;;;;;;11.45;8.95;;;;;;;;;;5030074;28;21442;-81
2024/03/20 06:43:50;;;;;;;13.75;9.05;;;;;;;;;;5048744;28;20182;-81
2024/03/20 06:46:16;;;;;;;11.52;9.80;;;;;;;;;;5045189;28;20021;-81
2024/03/20 06:48:41;;;;;;;12.50;8.90;;;;;;;;;;5027924;28;20044;-81
2024/03/20 06:51:09;;;;;;;12.82;9.45;;;;;;;;;;5021959;28;20454;-81
2024/03/20 06:53:35;;;;;;;13.52;9.80;;;;;;;;;;5047100;28;20053;-81
2024/03/20 06:56:02;;;;;;;13.00;9.65;;;;;;;;;;5045857;28;20028;-81
2024/03/20 06:58:27;;;;;;;15.48;10.20;;;;;;;;;;5049151;28;20039;-81
2024/03/20 07:00:53;;;;;;;14.52;10.23;;;;;;;;;;5048401;28;20608;-81
2024/03/20 07:03:19;;;;;;;15.05;10.13;;;;;;;;;;5049395;28;20021;-78
2024/03/20 07:05:45;;;;;;;14.80;9.80;;;;;;;;;;5044947;28;20025;-78
2024/03/20 07:08:10;;;;;;;13.20;9.68;;;;;;;;;;5031096;28;20389;-78
2024/03/20 07:10:39;;;;;;;13.35;10.05;;;;;;;;;;5045297;28;20033;-77
2024/03/20 07:13:06;;;;;;;17.52;10.75;;;;;;;;;;5043380;28;20037;-78
2024/03/20 07:15:32;;;;;;;12.70;10.40;;;;;;;;;;5045751;28;20031;-78
2024/03/20 07:18:01;;;;;;;15.65;9.95;;;;;;;;;;5028713;28;20032;-78
2024/03/20 07:20:26;;;;;;;15.20;11.30;;;;;;;;;;5045647;28;20086;-78
2024/03/20 07:22:52;;;;;;;15.40;10.63;;;;;;;;;;5044595;28;20418;-78
2024/03/20 07:25:17;;;;;;;15.82;10.75;;;;;;;;;;5048968;28;20025;-77
2024/03/20 07:27:43;;;;;;;17.75;11.52;;;;;;;;;;5048024;28;20025;-78
2024/03/20 07:30:09;;;;;;;18.23;12.07;;;;;;;;;;5051776;28;20028;-79
2024/03/20 07:32:37;;;;;;;17.38;12.60;;;;;;;;;;5050518;28;20032;-79
2024/03/20 07:35:04;;;;;;;18.25;13.68;;;;;;;;;;5051446;28;20475;-78
2024/03/20 07:37:29;;;;;;;16.20;12.77;;;;;;;;;;5051327;28;20039;-78
2024/03/20 07:39:55;;;;;;;21.58;14.10;;;;;;;;;;5047488;28;20021;-78
2024/03/20 07:42:20;;;;;;;18.50;14.13;;;;;;;;;;5032557;28;20064;-78
2024/03/20 07:44:47;;;;;;;21.55;14.45;;;;;;;;;;5048937;28;20049;-79
2024/03/20 07:47:13;;;;;;;19.35;14.35;;;;;;;;;;5051941;28;20030;-79
2024/03/20 07:49:39;;;;;;;24.10;15.27;;;;;;;;;;5027135;28;20043;-78
2024/03/20 07:52:05;;;;;;;20.38;14.38;;;;;;;;;;5045101;28;20109;-79
2024/03/20 07:54:30;;;;;;;21.65;15.27;;;;;;;;;;5053773;28;20107;-79
2024/03/20 07:56:56;;;;;;;19.52;15.45;;;;;;;;;;5048186;28;20029;-79
2024/03/20 07:59:23;;;;;;;19.35;14.52;;;;;;;;;;5051421;28;20052;-79
2024/03/20 08:01:50;;;;;;;20.00;14.85;;;;;;;;;;5039539;28;20078;-79
2024/03/20 08:04:15;;;;;;;20.58;14.43;;;;;;;;;;5052598;28;20032;-79
2024/03/20 08:06:41;;;;;;;21.58;14.88;;;;;;;;;;5034121;28;20038;-79
2024/03/20 08:09:06;;;;;;;20.75;15.45;;;;;;;;;;5047494;28;20195;-79
2024/03/20 08:11:33;;;;;;;20.08;14.40;;;;;;;;;;5053002;28;20074;-80
2024/03/20 08:13:58;;;;;;;19.05;14.15;;;;;;;;;;5050819;28;20562;-78
2024/03/20 08:16:25;;;;;;;18.65;13.93;;;;;;;;;;5035818;28;20036;-79
2024/03/20 08:18:51;;;;;;;19.70;12.65;;;;;;;;;;5037053;28;20029;-79
2024/03/20 08:21:17;;;;;;;17.95;12.98;;;;;;;;;;5052133;28;20467;-79
2024/03/20 08:23:43;;;;;;;19.45;13.98;;;;;;;;;;5028473;28;20029;-79
2024/03/20 08:26:08;;;;;;;17.33;13.13;;;;;;;;;;5044670;28;20100;-79
2024/03/20 08:28:34;;;;;;;20.73;14.23;;;;;;;;;;5047857;28;20124;-79
2024/03/20 08:30:59;;;;;;;18.15;12.68;;;;;;;;;;5053952;28;20039;-79
2024/03/20 08:33:25;;;;;;;17.95;13.07;;;;;;;;;;5042099;28;20029;-79
2024/03/20 08:35:55;;;;;;;22.30;14.50;;;;;;;;;;5047771;28;20018;-79
2024/03/20 08:38:20;;;;;;;19.02;14.32;;;;;;;;;;5049416;28;20024;-79
2024/03/20 08:40:46;;;;;;;20.63;14.20;;;;;;;;;;5039043;28;20036;-79
2024/03/20 08:43:12;;;;;;;22.35;13.85;;;;;;;;;;5036909;28;20064;-79
2024/03/20 08:45:38;;;;;;;18.67;14.07;;;;;;;;;;5039643;28;20056;-79
2024/03/20 08:48:03;;;;;;;18.65;14.38;;;;;;;;;;5047725;28;20025;-79
2024/03/20 08:50:29;;;;;;;22.90;15.75;;;;;;;;;;5035989;28;20466;-79
2024/03/20 08:52:54;;;;;;;18.65;13.90;;;;;;;;;;5048992;28;20027;-79
2024/03/20 08:55:20;;;;;;;19.73;13.82;;;;;;;;;;5052999;28;20028;-79
2024/03/20 08:57:45;;;;;;;22.02;14.85;;;;;;;;;;5050740;28;20070;-79
2024/03/20 09:00:11;;;;;;;21.23;15.15;;;;;;;;;;5050769;28;20064;-79
2024/03/20 09:02:37;;;;;;;23.75;15.30;;;;;;;;;;5049735;28;20037;-79
2024/03/20 09:05:03;;;;;;;22.73;14.40;;;;;;;;;;5040622;28;20024;-79
2024/03/20 09:07:29;;;;;;;24.02;15.27;;;;;;;;;;5041632;28;20032;-79
2024/03/20 09:09:54;;;;;;;25.45;15.32;;;;;;;;;;5050788;28;20479;-80
2024/03/20 09:12:19;;;;;;;20.58;15.35;;;;;;;;;;5052439;28;20028;-79
2024/03/20 09:14:45;;;;;;;20.48;14.90;;;;;;;;;;5042757;28;20029;-80
2024/03/20 09:17:10;;;;;;;19.13;14.13;;;;;;;;;;5051110;28;20060;-80
2024/03/20 09:19:36;;;;;;;20.15;14.95;;;;;;;;;;5041614;28;20025;-80
2024/03/20 09:22:02;;;;;;;19.90;13.90;;;;;;;;;;5045485;28;20032;-84
2024/03/20 09:24:27;;;;;;;20.67;15.48;;;;;;;;;;5046065;28;20115;-83
2024/03/20 09:26:53;;;;;;;21.33;14.55;;;;;;;;;;5052373;28;20105;-85
2024/03/20 09:29:19;;;;;;;22.38;15.20;;;;;;;;;;5050811;28;20044;-86
2024/03/20 09:31:45;;;;;;;22.15;16.35;;;;;;;;;;5031612;28;20033;-86
2024/03/20 09:34:11;;;;;;;28.05;15.98;;;;;;;;;;5029986;28;20116;-86
2024/03/20 09:36:36;;;;;;;23.80;16.92;;;;;;;;;;5052988;28;20028;-86
2024/03/20 09:39:03;;;;;;;26.13;17.67;;;;;;;;;;5033775;28;20033;-87
2024/03/20 09:41:28;;;;;;;25.50;17.73;;;;;;;;;;5040349;28;20021;-87
2024/03/20 09:43:54;;;;;;;22.95;16.52;;;;;;;;;;5031676;28;20039;-86
2024/03/20 09:46:21;;;;;;;23.52;16.92;;;;;;;;;;5050799;28;20025;-86
2024/03/20 09:48:48;;;;;;;24.65;17.10;;;;;;;;;;5034795;28;20404;-86
2024/03/20 09:51:14;;;;;;;23.45;15.45;;;;;;;;;;5037794;28;20021;-86
2024/03/20 09:53:42;;;;;;;21.40;15.68;;;;;;;;;;5040271;28;20028;-86
2024/03/20 09:56:11;;;;;;;23.88;15.00;;;;;;;;;;5046120;28;20112;-86
2024/03/20 09:58:39;;;;;;;23.90;15.93;;;;;;;;;;5039685;28;20036;-86
2024/03/20 10:01:11;;;;;;;23.83;16.92;;;;;;;;;;5046479;28;20107;-86
2024/03/20 10:03:38;;;;;;;24.65;16.77;;;;;;;;;;5043570;28;20064;-86
2024/03/20 10:06:04;;;;;;;23.88;16.50;;;;;;;;;;5050380;28;20029;-86
2024/03/20 10:08:29;;;;;;;22.33;16.30;;;;;;;;;;5039711;28;20398;-86
2024/03/20 10:10:55;;;;;;;22.60;15.77;;;;;;;;;;5051063;28;20036;-86
2024/03/20 10:13:21;;;;;;;23.08;16.63;;;;;;;;;;5037487;28;20033;-86
2024/03/20 10:15:47;;;;;;;25.08;15.70;;;;;;;;;;5046061;28;20088;-86
2024/03/20 10:18:16;;;;;;;21.98;16.88;;;;;;;;;;5043491;28;20025;-86
2024/03/20 10:20:42;;;;;;;26.25;18.42;;;;;;;;;;5033416;28;20047;-85
2024/03/20 10:23:13;;;;;;;26.13;17.25;;;;;;;;;;5051706;28;20107;-86
2024/03/20 10:25:39;;;;;;;28.42;19.88;;;;;;;;;;5050832;28;20026;-86
2024/03/20 10:28:10;;;;;;;26.10;18.95;;;;;;;;;;5025442;28;20025;-85
2024/03/20 10:30:36;;;;;;;27.35;19.33;;;;;;;;;;5039232;28;20032;-86
2024/03/20 10:33:02;;;;;;;24.00;16.60;;;;;;;;;;5047930;28;20021;-81
2024/03/20 10:35:29;;;;;;;24.00;16.00;;;;;;;;;;5049511;28;20029;-81
2024/03/20 10:37:55;;;;;;;24.10;16.48;;;;;;;;;;5019478;28;20028;-81
2024/03/20 10:40:21;;;;;;;22.70;17.98;;;;;;;;;;5041388;28;20392;-81
2024/03/20 10:42:49;;;;;;;22.70;17.65;;;;;;;;;;5042817;28;20061;-81
2024/03/20 10:45:16;;;;;;;23.25;17.52;;;;;;;;;;5042413;28;20116;-82
2024/03/20 10:47:44;;;;;;;25.63;18.02;;;;;;;;;;5042580;28;20100;-82
2024/03/20 10:50:10;;;;;;;22.95;17.45;;;;;;;;;;5041204;28;20034;-82
2024/03/20 10:52:35;;;;;;;26.83;18.65;;;;;;;;;;5045257;28;20082;-81
2024/03/20 10:55:03;;;;;;;27.10;18.80;;;;;;;;;;5042059;28;20029;-81
2024/03/20 10:57:29;;;;;;;23.25;16.30;;;;;;;;;;5050695;28;20033;-82
2024/03/20 10:59:56;;;;;;;23.58;16.35;;;;;;;;;;5039954;28;20028;-82
2024/03/20 11:02:26;;;;;;;22.27;15.80;;;;;;;;;;5038902;28;20412;-81
2024/03/20 11:04:51;;;;;;;25.35;17.10;;;;;;;;;;5052932;28;20017;-82
2024/03/20 11:07:29;;;;;;;24.60;17.85;;;;;;;;;;5041637;28;20182;-82
2024/03/20 11:10:14;;;;;;;21.42;17.08;;;;;;;;;;5052289;28;20060;-81
2024/03/20 11:12:40;;;;;;;23.27;16.73;;;;;;;;;;5046251;28;20108;-81
2024/03/20 11:15:06;;;;;;;23.70;17.08;;;;;;;;;;5049578;28;20132;-82
2024/03/20 11:17:38;;;;;;;24.67;16.55;;;;;;;;;;5055366;28;20021;-82
2024/03/20 11:20:33;;;;;;;23.60;17.00;;;;;;;;;;5053618;28;20029;-82
2024/03/20 11:23:07;;;;;;;23.83;16.27;;;;;;;;;;5026166;28;20059;-81
2024/03/20 11:25:39;;;;;;;20.52;15.55;;;;;;;;;;5053393;28;20021;-81
2024/03/20 11:28:05;;;;;;;23.50;16.90;;;;;;;;;;5051088;28;20039;-82
2024/03/20 11:30:31;;;;;;;23.63;16.98;;;;;;;;;;5054932;28;20398;-82
2024/03/20 11:32:56;;;;;;;22.10;17.35;;;;;;;;;;5054407;28;20025;-82
2024/03/20 11:35:23;;;;;;;23.58;17.27;;;;;;;;;;5046404;28;20033;-82
2024/03/20 11:37:49;;;;;;;23.15;17.50;;;;;;;;;;5045871;28;20024;-81
2024/03/20 11:40:15;;;;;;;26.65;18.35;;;;;;;;;;5048977;28;20024;-82
2024/03/20 11:42:40;;;;;;;25.27;18.00;;;;;;;;;;5053629;28;20036;-82
2024/03/20 11:45:11;;;;;;;23.30;17.92;;;;;;;;;;5038177;28;20063;-81
2024/03/20 11:47:37;;;;;;;22.95;16.42;;;;;;;;;;5052046;28;20025;-82
2024/03/20 11:50:02;;;;;;;24.38;17.15;;;;;;;;;;5043736;28;20026;-82
2024/03/20 11:52:28;;;;;;;20.88;16.40;;;;;;;;;;5050267;28;20025;-82
2024/03/20 11:54:53;;;;;;;20.10;16.00;;;;;;;;;;5037943;28;20033;-82
2024/03/20 11:57:20;;;;;;;22.15;17.45;;;;;;;;;;5045685;28;20419;-82
2024/03/20 11:59:52;;;;;;;24.63;16.70;;;;;;;;;;5051684;28;20599;-82
2024/03/20 12:02:19;;;;;;;23.58;16.27;;;;;;;;;;5052579;28;20040;-82
2024/03/20 12:04:45;;;;;;;24.58;16.88;;;;;;;;;;5044298;28;20074;-82
2024/03/20 12:07:28;;;;;;;21.42;16.55;;;;;;;;;;5054758;28;20102;-82
2024/03/20 12:09:54;;;;;;;22.60;16.03;;;;;;;;;;5051071;28;20075;-82
2024/03/20 12:12:21;;;;;;;21.75;16.38;;;;;;;;;;5042052;28;20025;-82
2024/03/20 12:14:48;;;;;;;22.98;16.67;;;;;;;;;;5044741;28;20478;-82
2024/03/20 12:17:13;;;;;;;23.10;16.65;;;;;;;;;;5052206;28;20506;-82
2024/03/20 12:19:39;;;;;;;22.00;16.67;;;;;;;;;;5049052;28;20033;-82
2024/03/20 12:22:05;;;;;;;22.15;16.63;;;;;;;;;;5040802;28;20021;-82
2024/03/20 12:24:34;;;;;;;22.45;16.63;;;;;;;;;;5044718;28;20449;-82
2024/03/20 12:26:59;;;;;;;21.63;16.58;;;;;;;;;;5052957;28;20021;-82
2024/03/20 12:29:25;;;;;;;23.27;16.58;;;;;;;;;;5039928;28;20060;-82
2024/03/20 12:31:50;;;;;;;21.20;16.10;;;;;;;;;;5052969;28;20017;-82
2024/03/20 12:34:17;;;;;;;25.05;17.20;;;;;;;;;;5034508;28;20035;-82
2024/03/20 12:36:43;;;;;;;22.48;17.00;;;;;;;;;;5036161;28;20024;-82
2024/03/20 12:39:09;;;;;;;20.98;16.85;;;;;;;;;;5043917;28;20031;-82
2024/03/20 12:41:34;;;;;;;21.88;16.67;;;;;;;;;;5041506;28;20437;-82
2024/03/20 12:44:00;;;;;;;24.48;16.50;;;;;;;;;;5043207;28;20427;-82
2024/03/20 12:46:26;;;;;;;20.25;15.60;;;;;;;;;;5052476;28;20024;-82
2024/03/20 12:48:51;;;;;;;22.38;17.05;;;;;;;;;;5048776;28;20013;-82
2024/03/20 12:51:19;;;;;;;20.63;16.13;;;;;;;;;;5043438;28;20039;-82
2024/03/20 12:53:47;;;;;;;22.02;17.08;;;;;;;;;;5039200;28;20058;-85
2024/03/20 12:56:12;;;;;;;18.58;15.18;;;;;;;;;;5040437;28;20513;-85
2024/03/20 12:58:38;;;;;;;22.75;15.52;;;;;;;;;;5042534;28;20029;-85
2024/03/20 13:01:04;;;;;;;19.85;15.88;;;;;;;;;;5037423;28;20036;-85
2024/03/20 13:03:29;;;;;;;18.42;15.10;;;;;;;;;;5042341;28;20084;-85
2024/03/20 13:05:57;;;;;;;19.85;14.18;;;;;;;;;;5044206;28;20431;-85
2024/03/20 13:08:23;;;;;;;21.52;15.48;;;;;;;;;;5042360;28;20083;-84
2024/03/20 13:10:48;;;;;;;19.75;15.23;;;;;;;;;;5034511;28;20013;-85
2024/03/20 13:13:22;;;;;;;17.75;14.95;;;;;;;;;;5044208;28;20410;-85
2024/03/20 13:15:48;;;;;;;19.45;14.90;;;;;;;;;;5045231;28;20034;-85
2024/03/20 13:18:36;;;;;;;19.42;16.25;;;;;;;;;;5041372;28;20044;-85
2024/03/20 13:21:24;;;;;;;25.45;16.00;;;;;;;;;;5041882;28;20022;-85
2024/03/20 13:23:59;;;;;;;21.08;15.93;;;;;;;;;;5036568;28;20037;-85
2024/03/20 13:26:26;;;;;;;23.98;16.70;;;;;;;;;;5051968;28;20020;-84
2024/03/20 13:28:52;;;;;;;22.35;16.40;;;;;;;;;;5044492;28;20505;-84
2024/03/20 13:31:18;;;;;;;20.33;15.70;;;;;;;;;;5041288;28;20028;-85
2024/03/20 13:33:46;;;;;;;18.75;15.52;;;;;;;;;;5048371;28;20017;-85
2024/03/20 13:36:18;;;;;;;23.77;16.70;;;;;;;;;;5044698;28;20029;-84
2024/03/20 13:38:44;;;;;;;20.07;16.30;;;;;;;;;;5037730;28;20049;-84
2024/03/20 13:46:25;;;;;;;21.90;14.65;;;;;;;;;;5039236;28;20028;-84
2024/03/20 13:48:50;;;;;;;22.35;16.55;;;;;;;;;;5043970;28;20092;-84
2024/03/20 13:51:17;;;;;;;22.45;16.38;;;;;;;;;;5043557;28;20091;-84
2024/03/20 13:53:44;;;;;;;21.75;15.45;;;;;;;;;;5047492;28;20056;-85
2024/03/20 13:56:15;;;;;;;17.80;15.20;;;;;;;;;;5046253;28;20021;-85
2024/03/20 13:58:42;;;;;;;22.73;16.30;;;;;;;;;;5049594;28;20534;-84
2024/03/20 14:01:13;;;;;;;20.30;15.35;;;;;;;;;;5049508;28;20067;-84
2024/03/20 14:03:39;;;;;;;19.98;16.05;;;;;;;;;;5050054;28;20033;-82
2024/03/20 14:06:04;;;;;;;20.63;16.30;;;;;;;;;;5048954;28;20012;-82
2024/03/20 14:08:30;;;;;;;21.73;16.45;;;;;;;;;;5043601;28;20045;-82
2024/03/20 14:10:55;;;;;;;21.92;16.95;;;;;;;;;;5043955;28;20033;-81
2024/03/20 14:13:21;;;;;;;21.25;17.65;;;;;;;;;;5037304;28;20063;-82
2024/03/20 14:15:47;;;;;;;21.77;16.58;;;;;;;;;;5040889;28;20099;-82
2024/03/20 14:18:13;;;;;;;20.63;16.50;;;;;;;;;;5037418;28;20018;-82
2024/03/20 14:20:38;;;;;;;24.92;16.98;;;;;;;;;;5040075;28;20028;-81
2024/03/20 14:23:05;;;;;;;24.13;17.40;;;;;;;;;;5044572;28;20031;-82
2024/03/20 14:25:33;;;;;;;21.15;16.70;;;;;;;;;;5042470;28;20052;-82
2024/03/20 14:27:59;;;;;;;26.58;16.90;;;;;;;;;;5038128;28;20032;-82
2024/03/20 14:30:25;;;;;;;19.65;15.48;;;;;;;;;;5041523;28;20033;-82